sensor_id;sensor_type;location;lat;lon;timestamp;P1;durP1;ratioP1;P2;durP2;ratioP2
13048;SDS011;6591;51.446;5.404;2024-03-08T00:00:11;33.07;;;20.60;;
13048;SDS011;6591;51.446;5.404;2024-03-08T00:02:42;29.63;;;20.20;;
13048;SDS011;6591;51.446;5.404;2024-03-08T00:05:12;31.50;;;20.97;;
13048;SDS011;6591;51.446;5.404;2024-03-08T00:07:42;34.27;;;19.97;;
13048;SDS011;6591;51.446;5.404;2024-03-08T00:10:10;31.90;;;20.37;;
13048;SDS011;6591;51.446;5.404;2024-03-08T00:12:41;29.67;;;19.83;;
13048;SDS011;6591;51.446;5.404;2024-03-08T00:15:12;28.70;;;18.80;;
13048;SDS011;6591;51.446;5.404;2024-03-08T00:17:44;28.17;;;18.17;;
13048;SDS011;6591;51.446;5.404;2024-03-08T00:20:12;31.80;;;20.57;;
13048;SDS011;6591;51.446;5.404;2024-03-08T00:22:40;31.53;;;20.07;;
13048;SDS011;6591;51.446;5.404;2024-03-08T00:25:07;27.80;;;19.37;;
13048;SDS011;6591;51.446;5.404;2024-03-08T00:27:36;32.33;;;21.13;;
13048;SDS011;6591;51.446;5.404;2024-03-08T00:30:05;31.17;;;19.87;;
13048;SDS011;6591;51.446;5.404;2024-03-08T00:32:33;25.93;;;18.90;;
13048;SDS011;6591;51.446;5.404;2024-03-08T00:35:00;29.63;;;19.77;;
13048;SDS011;6591;51.446;5.404;2024-03-08T00:37:28;31.00;;;19.63;;
13048;SDS011;6591;51.446;5.404;2024-03-08T00:39:55;31.00;;;19.53;;
13048;SDS011;6591;51.446;5.404;2024-03-08T00:42:22;26.83;;;19.17;;
13048;SDS011;6591;51.446;5.404;2024-03-08T00:44:50;30.10;;;19.57;;
13048;SDS011;6591;51.446;5.404;2024-03-08T00:47:18;28.03;;;18.83;;
13048;SDS011;6591;51.446;5.404;2024-03-08T00:49:45;31.03;;;19.53;;
13048;SDS011;6591;51.446;5.404;2024-03-08T00:52:13;29.80;;;20.03;;
13048;SDS011;6591;51.446;5.404;2024-03-08T00:54:40;29.23;;;19.50;;
13048;SDS011;6591;51.446;5.404;2024-03-08T00:57:10;30.00;;;19.50;;
13048;SDS011;6591;51.446;5.404;2024-03-08T00:59:38;26.10;;;18.70;;
13048;SDS011;6591;51.446;5.404;2024-03-08T01:02:05;28.23;;;18.33;;
13048;SDS011;6591;51.446;5.404;2024-03-08T01:04:32;28.57;;;18.87;;
13048;SDS011;6591;51.446;5.404;2024-03-08T01:07:00;31.67;;;19.50;;
13048;SDS011;6591;51.446;5.404;2024-03-08T01:09:27;26.57;;;19.00;;
13048;SDS011;6591;51.446;5.404;2024-03-08T01:11:55;28.13;;;19.77;;
13048;SDS011;6591;51.446;5.404;2024-03-08T01:14:23;25.47;;;18.40;;
13048;SDS011;6591;51.446;5.404;2024-03-08T01:16:52;27.93;;;19.13;;
13048;SDS011;6591;51.446;5.404;2024-03-08T01:19:19;27.77;;;19.43;;
13048;SDS011;6591;51.446;5.404;2024-03-08T01:21:46;27.97;;;19.13;;
13048;SDS011;6591;51.446;5.404;2024-03-08T01:24:13;27.03;;;18.17;;
13048;SDS011;6591;51.446;5.404;2024-03-08T01:26:40;27.73;;;18.43;;
13048;SDS011;6591;51.446;5.404;2024-03-08T01:29:07;24.83;;;17.30;;
13048;SDS011;6591;51.446;5.404;2024-03-08T01:31:34;26.70;;;18.70;;
13048;SDS011;6591;51.446;5.404;2024-03-08T01:34:03;28.17;;;17.67;;
13048;SDS011;6591;51.446;5.404;2024-03-08T01:36:31;26.57;;;18.33;;
13048;SDS011;6591;51.446;5.404;2024-03-08T01:38:58;26.83;;;19.60;;
13048;SDS011;6591;51.446;5.404;2024-03-08T01:41:25;26.07;;;17.63;;
13048;SDS011;6591;51.446;5.404;2024-03-08T01:43:56;27.60;;;18.37;;
13048;SDS011;6591;51.446;5.404;2024-03-08T01:46:23;26.27;;;18.87;;
13048;SDS011;6591;51.446;5.404;2024-03-08T01:48:50;28.17;;;19.23;;
13048;SDS011;6591;51.446;5.404;2024-03-08T01:51:18;24.80;;;16.80;;
13048;SDS011;6591;51.446;5.404;2024-03-08T01:53:46;24.67;;;17.53;;
13048;SDS011;6591;51.446;5.404;2024-03-08T01:56:15;28.40;;;17.77;;
13048;SDS011;6591;51.446;5.404;2024-03-08T01:58:44;25.50;;;17.43;;
13048;SDS011;6591;51.446;5.404;2024-03-08T02:01:13;26.83;;;18.43;;
13048;SDS011;6591;51.446;5.404;2024-03-08T02:03:42;27.83;;;17.63;;
13048;SDS011;6591;51.446;5.404;2024-03-08T02:06:11;27.73;;;18.57;;
13048;SDS011;6591;51.446;5.404;2024-03-08T02:08:44;28.03;;;19.77;;
13048;SDS011;6591;51.446;5.404;2024-03-08T02:11:13;27.20;;;17.77;;
13048;SDS011;6591;51.446;5.404;2024-03-08T02:13:42;27.10;;;18.77;;
13048;SDS011;6591;51.446;5.404;2024-03-08T02:16:09;26.03;;;18.93;;
13048;SDS011;6591;51.446;5.404;2024-03-08T02:18:36;24.77;;;17.60;;
13048;SDS011;6591;51.446;5.404;2024-03-08T02:21:06;25.17;;;17.27;;
13048;SDS011;6591;51.446;5.404;2024-03-08T02:23:35;25.67;;;17.10;;
13048;SDS011;6591;51.446;5.404;2024-03-08T02:26:03;25.90;;;19.30;;
13048;SDS011;6591;51.446;5.404;2024-03-08T02:28:31;27.53;;;18.73;;
13048;SDS011;6591;51.446;5.404;2024-03-08T02:30:59;24.70;;;17.27;;
13048;SDS011;6591;51.446;5.404;2024-03-08T02:33:27;25.37;;;17.33;;
13048;SDS011;6591;51.446;5.404;2024-03-08T02:35:55;25.73;;;18.33;;
13048;SDS011;6591;51.446;5.404;2024-03-08T02:38:23;26.83;;;17.57;;
13048;SDS011;6591;51.446;5.404;2024-03-08T02:40:52;25.90;;;18.50;;
13048;SDS011;6591;51.446;5.404;2024-03-08T02:43:21;28.63;;;18.40;;
13048;SDS011;6591;51.446;5.404;2024-03-08T02:45:50;23.63;;;16.73;;
13048;SDS011;6591;51.446;5.404;2024-03-08T02:48:19;27.47;;;19.10;;
13048;SDS011;6591;51.446;5.404;2024-03-08T02:50:48;23.77;;;18.27;;
13048;SDS011;6591;51.446;5.404;2024-03-08T02:53:17;26.37;;;17.20;;
13048;SDS011;6591;51.446;5.404;2024-03-08T02:55:50;25.27;;;18.50;;
13048;SDS011;6591;51.446;5.404;2024-03-08T02:58:17;25.20;;;18.37;;
13048;SDS011;6591;51.446;5.404;2024-03-08T03:00:45;25.87;;;18.80;;
13048;SDS011;6591;51.446;5.404;2024-03-08T03:03:12;23.73;;;17.47;;
13048;SDS011;6591;51.446;5.404;2024-03-08T03:05:39;23.03;;;17.00;;
13048;SDS011;6591;51.446;5.404;2024-03-08T03:08:13;24.10;;;17.33;;
13048;SDS011;6591;51.446;5.404;2024-03-08T03:10:44;23.87;;;16.97;;
13048;SDS011;6591;51.446;5.404;2024-03-08T03:13:11;25.80;;;16.57;;
13048;SDS011;6591;51.446;5.404;2024-03-08T03:15:38;23.27;;;17.13;;
13048;SDS011;6591;51.446;5.404;2024-03-08T03:18:08;27.37;;;18.67;;
13048;SDS011;6591;51.446;5.404;2024-03-08T03:20:37;25.37;;;18.03;;
13048;SDS011;6591;51.446;5.404;2024-03-08T03:23:08;27.53;;;19.73;;
13048;SDS011;6591;51.446;5.404;2024-03-08T03:25:40;24.93;;;18.73;;
13048;SDS011;6591;51.446;5.404;2024-03-08T03:28:08;24.53;;;18.50;;
13048;SDS011;6591;51.446;5.404;2024-03-08T03:30:37;27.60;;;18.67;;
13048;SDS011;6591;51.446;5.404;2024-03-08T03:33:05;27.53;;;19.57;;
13048;SDS011;6591;51.446;5.404;2024-03-08T03:35:36;24.40;;;17.63;;
13048;SDS011;6591;51.446;5.404;2024-03-08T03:38:04;28.63;;;20.27;;
13048;SDS011;6591;51.446;5.404;2024-03-08T03:40:37;28.70;;;20.33;;
13048;SDS011;6591;51.446;5.404;2024-03-08T03:43:06;22.97;;;17.23;;
13048;SDS011;6591;51.446;5.404;2024-03-08T03:45:34;26.47;;;18.50;;
13048;SDS011;6591;51.446;5.404;2024-03-08T03:48:08;25.80;;;17.83;;
13048;SDS011;6591;51.446;5.404;2024-03-08T03:50:37;24.10;;;17.83;;
13048;SDS011;6591;51.446;5.404;2024-03-08T03:53:05;25.40;;;18.27;;
13048;SDS011;6591;51.446;5.404;2024-03-08T03:55:37;24.63;;;17.53;;
13048;SDS011;6591;51.446;5.404;2024-03-08T03:58:06;23.33;;;18.40;;
13048;SDS011;6591;51.446;5.404;2024-03-08T04:00:34;28.20;;;19.83;;
13048;SDS011;6591;51.446;5.404;2024-03-08T04:03:01;24.73;;;17.90;;
13048;SDS011;6591;51.446;5.404;2024-03-08T04:05:28;26.60;;;17.47;;
13048;SDS011;6591;51.446;5.404;2024-03-08T04:07:55;24.90;;;17.67;;
13048;SDS011;6591;51.446;5.404;2024-03-08T04:10:23;25.87;;;18.27;;
13048;SDS011;6591;51.446;5.404;2024-03-08T04:12:51;24.23;;;17.00;;
13048;SDS011;6591;51.446;5.404;2024-03-08T04:15:18;21.57;;;16.77;;
13048;SDS011;6591;51.446;5.404;2024-03-08T04:17:47;26.83;;;18.30;;
13048;SDS011;6591;51.446;5.404;2024-03-08T04:20:14;23.67;;;17.33;;
13048;SDS011;6591;51.446;5.404;2024-03-08T04:22:43;22.97;;;16.57;;
13048;SDS011;6591;51.446;5.404;2024-03-08T04:25:13;23.87;;;17.23;;
13048;SDS011;6591;51.446;5.404;2024-03-08T04:27:41;32.73;;;18.70;;
13048;SDS011;6591;51.446;5.404;2024-03-08T04:30:08;25.93;;;18.77;;
13048;SDS011;6591;51.446;5.404;2024-03-08T04:32:36;25.90;;;18.40;;
13048;SDS011;6591;51.446;5.404;2024-03-08T04:35:04;28.37;;;18.83;;
13048;SDS011;6591;51.446;5.404;2024-03-08T04:37:31;24.50;;;17.90;;
13048;SDS011;6591;51.446;5.404;2024-03-08T04:39:59;24.37;;;18.00;;
13048;SDS011;6591;51.446;5.404;2024-03-08T04:42:26;23.07;;;16.60;;
13048;SDS011;6591;51.446;5.404;2024-03-08T04:44:56;22.30;;;17.67;;
13048;SDS011;6591;51.446;5.404;2024-03-08T04:47:24;22.57;;;16.83;;
13048;SDS011;6591;51.446;5.404;2024-03-08T04:49:52;24.37;;;18.17;;
13048;SDS011;6591;51.446;5.404;2024-03-08T04:52:19;25.47;;;18.00;;
13048;SDS011;6591;51.446;5.404;2024-03-08T04:54:49;23.07;;;16.70;;
13048;SDS011;6591;51.446;5.404;2024-03-08T04:57:16;28.83;;;20.00;;
13048;SDS011;6591;51.446;5.404;2024-03-08T04:59:47;26.37;;;19.20;;
13048;SDS011;6591;51.446;5.404;2024-03-08T05:02:14;26.43;;;17.73;;
13048;SDS011;6591;51.446;5.404;2024-03-08T05:04:41;26.13;;;18.63;;
13048;SDS011;6591;51.446;5.404;2024-03-08T05:07:09;23.80;;;17.10;;
13048;SDS011;6591;51.446;5.404;2024-03-08T05:09:36;26.73;;;19.27;;
13048;SDS011;6591;51.446;5.404;2024-03-08T05:12:04;24.67;;;18.13;;
13048;SDS011;6591;51.446;5.404;2024-03-08T05:14:31;27.60;;;18.80;;
13048;SDS011;6591;51.446;5.404;2024-03-08T05:16:59;29.07;;;19.27;;
13048;SDS011;6591;51.446;5.404;2024-03-08T05:19:27;22.80;;;17.03;;
13048;SDS011;6591;51.446;5.404;2024-03-08T05:22:00;24.47;;;18.47;;
13048;SDS011;6591;51.446;5.404;2024-03-08T05:24:28;24.13;;;18.37;;
13048;SDS011;6591;51.446;5.404;2024-03-08T05:26:56;27.43;;;18.20;;
13048;SDS011;6591;51.446;5.404;2024-03-08T05:29:23;25.97;;;18.20;;
13048;SDS011;6591;51.446;5.404;2024-03-08T05:31:51;22.57;;;17.00;;
13048;SDS011;6591;51.446;5.404;2024-03-08T05:34:19;26.67;;;18.13;;
13048;SDS011;6591;51.446;5.404;2024-03-08T05:36:49;23.00;;;17.20;;
13048;SDS011;6591;51.446;5.404;2024-03-08T05:39:18;28.60;;;19.50;;
13048;SDS011;6591;51.446;5.404;2024-03-08T05:41:46;28.57;;;18.83;;
13048;SDS011;6591;51.446;5.404;2024-03-08T05:44:14;27.30;;;19.57;;
13048;SDS011;6591;51.446;5.404;2024-03-08T05:46:44;29.57;;;20.50;;
13048;SDS011;6591;51.446;5.404;2024-03-08T05:49:13;25.37;;;19.60;;
13048;SDS011;6591;51.446;5.404;2024-03-08T05:51:41;27.87;;;19.90;;
13048;SDS011;6591;51.446;5.404;2024-03-08T05:54:11;31.17;;;20.50;;
13048;SDS011;6591;51.446;5.404;2024-03-08T05:56:42;26.87;;;18.93;;
13048;SDS011;6591;51.446;5.404;2024-03-08T05:59:11;32.17;;;22.57;;
13048;SDS011;6591;51.446;5.404;2024-03-08T06:01:39;31.30;;;20.80;;
13048;SDS011;6591;51.446;5.404;2024-03-08T06:04:09;29.27;;;20.67;;
13048;SDS011;6591;51.446;5.404;2024-03-08T06:06:40;28.73;;;20.10;;
13048;SDS011;6591;51.446;5.404;2024-03-08T06:09:08;25.00;;;18.33;;
13048;SDS011;6591;51.446;5.404;2024-03-08T06:11:42;27.50;;;19.43;;
13048;SDS011;6591;51.446;5.404;2024-03-08T06:14:09;27.77;;;20.07;;
13048;SDS011;6591;51.446;5.404;2024-03-08T06:16:37;26.20;;;19.53;;
13048;SDS011;6591;51.446;5.404;2024-03-08T06:19:10;26.10;;;19.17;;
13048;SDS011;6591;51.446;5.404;2024-03-08T06:21:38;28.20;;;19.83;;
13048;SDS011;6591;51.446;5.404;2024-03-08T06:24:05;26.50;;;19.27;;
13048;SDS011;6591;51.446;5.404;2024-03-08T06:26:33;29.37;;;20.27;;
13048;SDS011;6591;51.446;5.404;2024-03-08T06:29:03;26.90;;;19.37;;
13048;SDS011;6591;51.446;5.404;2024-03-08T06:31:33;28.10;;;19.87;;
13048;SDS011;6591;51.446;5.404;2024-03-08T06:34:00;28.73;;;20.60;;
13048;SDS011;6591;51.446;5.404;2024-03-08T06:36:28;27.60;;;19.80;;
13048;SDS011;6591;51.446;5.404;2024-03-08T06:38:55;30.13;;;19.80;;
13048;SDS011;6591;51.446;5.404;2024-03-08T06:41:24;25.70;;;18.77;;
13048;SDS011;6591;51.446;5.404;2024-03-08T06:43:51;26.80;;;18.77;;
13048;SDS011;6591;51.446;5.404;2024-03-08T06:46:18;29.23;;;19.23;;
13048;SDS011;6591;51.446;5.404;2024-03-08T06:48:47;26.70;;;19.10;;
13048;SDS011;6591;51.446;5.404;2024-03-08T06:51:16;27.57;;;18.97;;
13048;SDS011;6591;51.446;5.404;2024-03-08T06:53:44;25.20;;;18.43;;
13048;SDS011;6591;51.446;5.404;2024-03-08T06:56:12;27.47;;;19.17;;
13048;SDS011;6591;51.446;5.404;2024-03-08T06:58:39;28.17;;;19.17;;
13048;SDS011;6591;51.446;5.404;2024-03-08T07:01:07;33.53;;;18.87;;
13048;SDS011;6591;51.446;5.404;2024-03-08T07:03:41;25.67;;;18.93;;
13048;SDS011;6591;51.446;5.404;2024-03-08T07:06:11;27.93;;;20.13;;
13048;SDS011;6591;51.446;5.404;2024-03-08T07:08:42;29.23;;;20.50;;
13048;SDS011;6591;51.446;5.404;2024-03-08T07:11:09;25.27;;;18.97;;
13048;SDS011;6591;51.446;5.404;2024-03-08T07:13:38;26.87;;;19.33;;
13048;SDS011;6591;51.446;5.404;2024-03-08T07:16:07;25.13;;;18.57;;
13048;SDS011;6591;51.446;5.404;2024-03-08T07:18:35;25.93;;;18.97;;
13048;SDS011;6591;51.446;5.404;2024-03-08T07:21:06;27.23;;;19.40;;
13048;SDS011;6591;51.446;5.404;2024-03-08T07:23:33;25.97;;;19.13;;
13048;SDS011;6591;51.446;5.404;2024-03-08T07:26:15;24.63;;;18.23;;
13048;SDS011;6591;51.446;5.404;2024-03-08T07:28:43;26.47;;;19.90;;
13048;SDS011;6591;51.446;5.404;2024-03-08T07:31:10;26.60;;;19.60;;
13048;SDS011;6591;51.446;5.404;2024-03-08T07:33:40;31.33;;;22.40;;
13048;SDS011;6591;51.446;5.404;2024-03-08T07:36:07;28.67;;;20.60;;
13048;SDS011;6591;51.446;5.404;2024-03-08T07:38:36;28.50;;;19.60;;
13048;SDS011;6591;51.446;5.404;2024-03-08T07:41:04;28.43;;;20.73;;
13048;SDS011;6591;51.446;5.404;2024-03-08T07:43:31;28.10;;;20.37;;
13048;SDS011;6591;51.446;5.404;2024-03-08T07:46:01;30.33;;;21.23;;
13048;SDS011;6591;51.446;5.404;2024-03-08T07:48:29;27.03;;;19.37;;
13048;SDS011;6591;51.446;5.404;2024-03-08T07:50:57;29.13;;;21.37;;
13048;SDS011;6591;51.446;5.404;2024-03-08T07:53:24;28.70;;;20.70;;
13048;SDS011;6591;51.446;5.404;2024-03-08T07:55:51;28.27;;;20.37;;
13048;SDS011;6591;51.446;5.404;2024-03-08T07:58:19;31.43;;;20.60;;
13048;SDS011;6591;51.446;5.404;2024-03-08T08:00:46;28.27;;;19.43;;
13048;SDS011;6591;51.446;5.404;2024-03-08T08:03:13;28.83;;;21.17;;
13048;SDS011;6591;51.446;5.404;2024-03-08T08:05:40;26.77;;;19.90;;
13048;SDS011;6591;51.446;5.404;2024-03-08T08:08:08;23.63;;;18.77;;
13048;SDS011;6591;51.446;5.404;2024-03-08T08:10:37;27.10;;;19.90;;
13048;SDS011;6591;51.446;5.404;2024-03-08T08:13:05;27.43;;;19.87;;
13048;SDS011;6591;51.446;5.404;2024-03-08T08:15:32;27.33;;;19.93;;
13048;SDS011;6591;51.446;5.404;2024-03-08T08:18:02;23.97;;;18.67;;
13048;SDS011;6591;51.446;5.404;2024-03-08T08:20:32;28.60;;;20.03;;
13048;SDS011;6591;51.446;5.404;2024-03-08T08:22:59;26.33;;;19.20;;
13048;SDS011;6591;51.446;5.404;2024-03-08T08:25:27;25.60;;;19.03;;
13048;SDS011;6591;51.446;5.404;2024-03-08T08:27:54;24.30;;;19.07;;
13048;SDS011;6591;51.446;5.404;2024-03-08T08:30:22;26.10;;;19.10;;
13048;SDS011;6591;51.446;5.404;2024-03-08T08:32:49;24.97;;;18.90;;
13048;SDS011;6591;51.446;5.404;2024-03-08T08:35:16;24.33;;;18.23;;
13048;SDS011;6591;51.446;5.404;2024-03-08T08:37:46;24.13;;;17.57;;
13048;SDS011;6591;51.446;5.404;2024-03-08T08:40:13;25.20;;;18.37;;
13048;SDS011;6591;51.446;5.404;2024-03-08T08:42:42;23.17;;;18.07;;
13048;SDS011;6591;51.446;5.404;2024-03-08T08:45:10;21.97;;;17.13;;
13048;SDS011;6591;51.446;5.404;2024-03-08T08:47:43;23.10;;;18.00;;
13048;SDS011;6591;51.446;5.404;2024-03-08T08:50:12;24.57;;;17.90;;
13048;SDS011;6591;51.446;5.404;2024-03-08T08:52:39;23.47;;;17.47;;
13048;SDS011;6591;51.446;5.404;2024-03-08T08:55:08;22.33;;;18.07;;
13048;SDS011;6591;51.446;5.404;2024-03-08T08:57:35;22.37;;;17.87;;
13048;SDS011;6591;51.446;5.404;2024-03-08T09:00:03;22.80;;;17.53;;
13048;SDS011;6591;51.446;5.404;2024-03-08T09:02:34;22.37;;;17.30;;
13048;SDS011;6591;51.446;5.404;2024-03-08T09:05:01;24.10;;;17.93;;
13048;SDS011;6591;51.446;5.404;2024-03-08T09:07:29;20.93;;;16.23;;
13048;SDS011;6591;51.446;5.404;2024-03-08T09:09:56;24.10;;;17.10;;
13048;SDS011;6591;51.446;5.404;2024-03-08T09:12:25;22.37;;;16.63;;
13048;SDS011;6591;51.446;5.404;2024-03-08T09:14:53;23.83;;;17.33;;
13048;SDS011;6591;51.446;5.404;2024-03-08T09:17:21;21.43;;;16.70;;
13048;SDS011;6591;51.446;5.404;2024-03-08T09:19:49;22.27;;;16.47;;
13048;SDS011;6591;51.446;5.404;2024-03-08T09:22:16;19.97;;;16.00;;
13048;SDS011;6591;51.446;5.404;2024-03-08T09:24:44;19.43;;;14.90;;
13048;SDS011;6591;51.446;5.404;2024-03-08T09:27:12;22.20;;;16.27;;
13048;SDS011;6591;51.446;5.404;2024-03-08T09:29:40;20.57;;;15.93;;
13048;SDS011;6591;51.446;5.404;2024-03-08T09:32:07;17.67;;;14.43;;
13048;SDS011;6591;51.446;5.404;2024-03-08T09:34:34;22.77;;;16.43;;
13048;SDS011;6591;51.446;5.404;2024-03-08T09:37:04;19.20;;;15.50;;
13048;SDS011;6591;51.446;5.404;2024-03-08T09:39:31;21.60;;;15.00;;
13048;SDS011;6591;51.446;5.404;2024-03-08T09:42:00;18.67;;;15.67;;
13048;SDS011;6591;51.446;5.404;2024-03-08T09:44:28;20.20;;;15.30;;
13048;SDS011;6591;51.446;5.404;2024-03-08T09:46:55;18.57;;;14.60;;
13048;SDS011;6591;51.446;5.404;2024-03-08T09:49:25;19.67;;;14.93;;
13048;SDS011;6591;51.446;5.404;2024-03-08T09:51:52;19.67;;;15.83;;
13048;SDS011;6591;51.446;5.404;2024-03-08T09:54:20;18.07;;;14.70;;
13048;SDS011;6591;51.446;5.404;2024-03-08T09:56:51;17.37;;;14.13;;
13048;SDS011;6591;51.446;5.404;2024-03-08T09:59:19;19.93;;;15.40;;
13048;SDS011;6591;51.446;5.404;2024-03-08T10:01:50;19.43;;;15.03;;
13048;SDS011;6591;51.446;5.404;2024-03-08T10:04:18;18.30;;;14.10;;
13048;SDS011;6591;51.446;5.404;2024-03-08T10:06:46;18.97;;;15.17;;
13048;SDS011;6591;51.446;5.404;2024-03-08T10:09:14;17.97;;;13.83;;
13048;SDS011;6591;51.446;5.404;2024-03-08T10:11:43;19.00;;;14.33;;
13048;SDS011;6591;51.446;5.404;2024-03-08T10:14:12;18.47;;;14.40;;
13048;SDS011;6591;51.446;5.404;2024-03-08T10:16:39;18.37;;;14.00;;
13048;SDS011;6591;51.446;5.404;2024-03-08T10:19:06;18.57;;;14.47;;
13048;SDS011;6591;51.446;5.404;2024-03-08T10:21:34;19.13;;;14.40;;
13048;SDS011;6591;51.446;5.404;2024-03-08T10:24:04;16.70;;;13.83;;
13048;SDS011;6591;51.446;5.404;2024-03-08T10:26:31;19.27;;;15.17;;
13048;SDS011;6591;51.446;5.404;2024-03-08T10:28:58;18.47;;;14.57;;
13048;SDS011;6591;51.446;5.404;2024-03-08T10:31:26;18.13;;;13.80;;
13048;SDS011;6591;51.446;5.404;2024-03-08T10:33:53;17.73;;;14.43;;
13048;SDS011;6591;51.446;5.404;2024-03-08T10:36:20;16.37;;;13.10;;
13048;SDS011;6591;51.446;5.404;2024-03-08T10:38:50;18.70;;;13.77;;
13048;SDS011;6591;51.446;5.404;2024-03-08T10:41:19;15.83;;;12.93;;
13048;SDS011;6591;51.446;5.404;2024-03-08T10:49:23;16.40;;;12.37;;
13048;SDS011;6591;51.446;5.404;2024-03-08T10:52:05;13.40;;;11.03;;
13048;SDS011;6591;51.446;5.404;2024-03-08T10:54:36;14.80;;;10.87;;
13048;SDS011;6591;51.446;5.404;2024-03-08T10:57:12;15.57;;;12.00;;
13048;SDS011;6591;51.446;5.404;2024-03-08T10:59:41;16.93;;;11.27;;
13048;SDS011;6591;51.446;5.404;2024-03-08T11:02:11;14.97;;;11.83;;
13048;SDS011;6591;51.446;5.404;2024-03-08T11:04:51;12.93;;;11.13;;
13048;SDS011;6591;51.446;5.404;2024-03-08T11:07:19;12.07;;;10.57;;
13048;SDS011;6591;51.446;5.404;2024-03-08T11:09:47;13.40;;;10.07;;
13048;SDS011;6591;51.446;5.404;2024-03-08T11:12:18;12.30;;;10.20;;
13048;SDS011;6591;51.446;5.404;2024-03-08T11:14:58;11.00;;;9.27;;
13048;SDS011;6591;51.446;5.404;2024-03-08T11:20:18;10.37;;;8.87;;
13048;SDS011;6591;51.446;5.404;2024-03-08T11:22:49;13.03;;;9.30;;
13048;SDS011;6591;51.446;5.404;2024-03-08T11:25:31;13.30;;;9.40;;
13048;SDS011;6591;51.446;5.404;2024-03-08T11:28:19;11.60;;;9.67;;
13048;SDS011;6591;51.446;5.404;2024-03-08T11:33:30;14.10;;;9.20;;
13048;SDS011;6591;51.446;5.404;2024-03-08T11:36:09;13.63;;;9.40;;
13048;SDS011;6591;51.446;5.404;2024-03-08T11:38:43;14.37;;;9.77;;
13048;SDS011;6591;51.446;5.404;2024-03-08T11:41:18;12.23;;;9.40;;
13048;SDS011;6591;51.446;5.404;2024-03-08T11:43:48;10.60;;;8.70;;
13048;SDS011;6591;51.446;5.404;2024-03-08T11:46:17;11.53;;;9.17;;
13048;SDS011;6591;51.446;5.404;2024-03-08T11:48:47;12.23;;;9.10;;
13048;SDS011;6591;51.446;5.404;2024-03-08T11:51:15;11.77;;;9.63;;
13048;SDS011;6591;51.446;5.404;2024-03-08T11:53:45;10.93;;;9.77;;
13048;SDS011;6591;51.446;5.404;2024-03-08T11:56:15;11.63;;;9.20;;
13048;SDS011;6591;51.446;5.404;2024-03-08T11:58:51;13.40;;;9.37;;
13048;SDS011;6591;51.446;5.404;2024-03-08T12:01:24;10.77;;;8.83;;
13048;SDS011;6591;51.446;5.404;2024-03-08T12:03:52;11.77;;;9.37;;
13048;SDS011;6591;51.446;5.404;2024-03-08T12:06:21;10.33;;;8.73;;
13048;SDS011;6591;51.446;5.404;2024-03-08T12:08:49;9.63;;;8.63;;
13048;SDS011;6591;51.446;5.404;2024-03-08T12:11:17;10.30;;;9.13;;
13048;SDS011;6591;51.446;5.404;2024-03-08T12:13:53;12.73;;;9.03;;
13048;SDS011;6591;51.446;5.404;2024-03-08T12:16:20;11.30;;;8.53;;
13048;SDS011;6591;51.446;5.404;2024-03-08T12:18:51;10.70;;;7.90;;
13048;SDS011;6591;51.446;5.404;2024-03-08T12:21:20;9.93;;;8.63;;
13048;SDS011;6591;51.446;5.404;2024-03-08T12:24:03;9.63;;;8.47;;
13048;SDS011;6591;51.446;5.404;2024-03-08T12:26:36;11.27;;;8.97;;
13048;SDS011;6591;51.446;5.404;2024-03-08T12:29:21;10.63;;;9.13;;
13048;SDS011;6591;51.446;5.404;2024-03-08T12:31:52;11.00;;;8.83;;
13048;SDS011;6591;51.446;5.404;2024-03-08T12:34:27;9.93;;;8.57;;
13048;SDS011;6591;51.446;5.404;2024-03-08T12:36:55;11.30;;;9.10;;
13048;SDS011;6591;51.446;5.404;2024-03-08T12:39:24;10.43;;;9.33;;
13048;SDS011;6591;51.446;5.404;2024-03-08T12:41:54;11.40;;;8.63;;
13048;SDS011;6591;51.446;5.404;2024-03-08T12:44:24;10.23;;;9.13;;
13048;SDS011;6591;51.446;5.404;2024-03-08T12:46:52;9.97;;;8.27;;
13048;SDS011;6591;51.446;5.404;2024-03-08T12:49:20;10.93;;;8.60;;
13048;SDS011;6591;51.446;5.404;2024-03-08T12:51:49;11.03;;;8.60;;
13048;SDS011;6591;51.446;5.404;2024-03-08T12:54:16;9.70;;;8.20;;
13048;SDS011;6591;51.446;5.404;2024-03-08T12:56:44;10.30;;;8.63;;
13048;SDS011;6591;51.446;5.404;2024-03-08T12:59:11;11.03;;;8.33;;
13048;SDS011;6591;51.446;5.404;2024-03-08T13:01:38;10.87;;;9.70;;
13048;SDS011;6591;51.446;5.404;2024-03-08T13:04:06;10.23;;;8.60;;
13048;SDS011;6591;51.446;5.404;2024-03-08T13:06:37;11.03;;;9.20;;
13048;SDS011;6591;51.446;5.404;2024-03-08T13:09:04;10.37;;;8.47;;
13048;SDS011;6591;51.446;5.404;2024-03-08T13:11:32;10.20;;;8.37;;
13048;SDS011;6591;51.446;5.404;2024-03-08T13:14:04;11.03;;;8.50;;
13048;SDS011;6591;51.446;5.404;2024-03-08T13:16:34;10.73;;;8.17;;
13048;SDS011;6591;51.446;5.404;2024-03-08T13:19:01;9.13;;;7.80;;
13048;SDS011;6591;51.446;5.404;2024-03-08T13:21:28;10.03;;;8.43;;
13048;SDS011;6591;51.446;5.404;2024-03-08T13:23:57;11.13;;;9.10;;
13048;SDS011;6591;51.446;5.404;2024-03-08T13:26:26;10.20;;;8.23;;
13048;SDS011;6591;51.446;5.404;2024-03-08T13:29:06;9.83;;;8.50;;
13048;SDS011;6591;51.446;5.404;2024-03-08T13:31:33;10.27;;;8.27;;
13048;SDS011;6591;51.446;5.404;2024-03-08T13:34:03;12.73;;;9.03;;
13048;SDS011;6591;51.446;5.404;2024-03-08T13:36:31;11.83;;;9.47;;
13048;SDS011;6591;51.446;5.404;2024-03-08T13:39:05;12.70;;;8.97;;
13048;SDS011;6591;51.446;5.404;2024-03-08T13:41:41;9.70;;;8.70;;
13048;SDS011;6591;51.446;5.404;2024-03-08T13:44:08;10.10;;;7.97;;
13048;SDS011;6591;51.446;5.404;2024-03-08T13:46:36;10.43;;;8.90;;
13048;SDS011;6591;51.446;5.404;2024-03-08T13:49:04;12.57;;;9.07;;
13048;SDS011;6591;51.446;5.404;2024-03-08T13:51:34;10.43;;;8.80;;
13048;SDS011;6591;51.446;5.404;2024-03-08T13:54:02;10.03;;;8.00;;
13048;SDS011;6591;51.446;5.404;2024-03-08T13:56:33;9.23;;;7.97;;
13048;SDS011;6591;51.446;5.404;2024-03-08T13:59:00;10.07;;;8.50;;
13048;SDS011;6591;51.446;5.404;2024-03-08T14:01:30;13.00;;;8.60;;
13048;SDS011;6591;51.446;5.404;2024-03-08T14:03:59;9.33;;;7.70;;
13048;SDS011;6591;51.446;5.404;2024-03-08T14:06:26;8.77;;;7.80;;
13048;SDS011;6591;51.446;5.404;2024-03-08T14:08:53;9.70;;;7.90;;
13048;SDS011;6591;51.446;5.404;2024-03-08T14:11:23;8.40;;;7.43;;
13048;SDS011;6591;51.446;5.404;2024-03-08T14:13:50;8.80;;;7.47;;
13048;SDS011;6591;51.446;5.404;2024-03-08T14:16:18;10.05;;;8.18;;
13048;SDS011;6591;51.446;5.404;2024-03-08T14:18:46;12.70;;;9.43;;
13048;SDS011;6591;51.446;5.404;2024-03-08T14:21:13;9.60;;;8.13;;
13048;SDS011;6591;51.446;5.404;2024-03-08T14:23:43;9.30;;;7.40;;
13048;SDS011;6591;51.446;5.404;2024-03-08T14:26:10;8.55;;;7.38;;
13048;SDS011;6591;51.446;5.404;2024-03-08T14:28:37;11.40;;;7.87;;
13048;SDS011;6591;51.446;5.404;2024-03-08T14:31:05;8.57;;;7.03;;
13048;SDS011;6591;51.446;5.404;2024-03-08T14:33:37;9.75;;;7.78;;
13048;SDS011;6591;51.446;5.404;2024-03-08T14:36:04;7.72;;;6.93;;
13048;SDS011;6591;51.446;5.404;2024-03-08T14:38:32;7.88;;;6.95;;
13048;SDS011;6591;51.446;5.404;2024-03-08T14:41:01;9.02;;;7.47;;
13048;SDS011;6591;51.446;5.404;2024-03-08T14:43:30;8.52;;;7.30;;
13048;SDS011;6591;51.446;5.404;2024-03-08T14:45:58;8.88;;;7.55;;
13048;SDS011;6591;51.446;5.404;2024-03-08T14:48:25;10.23;;;7.50;;
13048;SDS011;6591;51.446;5.404;2024-03-08T14:50:53;7.75;;;6.78;;
13048;SDS011;6591;51.446;5.404;2024-03-08T14:53:20;9.30;;;7.47;;
13048;SDS011;6591;51.446;5.404;2024-03-08T14:55:48;10.40;;;8.68;;
13048;SDS011;6591;51.446;5.404;2024-03-08T14:58:15;8.73;;;7.82;;